Time;durP1;ratioP1;P1;durP2;ratioP2;P2;SDS_P1;SDS_P2;PMS_P1;PMS_P2;Temp;Humidity;BMP_temperature;BMP_pressure;BME280_temperature;BME280_humidity;BME280_pressure;Samples;Min_cycle;Max_cycle;Signal;HPM_P1;HPM_P2
2023/01/30 00:01:21;;;;;;;18.70;8.30;;;;;;;-2.25;100.00;99415.89;104423;1291;23131;-30
2023/01/30 00:03:47;;;;;;;10.10;6.80;;;;;;;-2.20;100.00;99408.69;104452;1295;24129;-35
2023/01/30 00:06:13;;;;;;;13.70;6.90;;;;;;;-2.14;100.00;99404.34;104415;1306;22566;-29
2023/01/30 00:08:39;;;;;;;11.80;6.90;;;;;;;-2.13;100.00;99396.05;104449;1301;24512;-34
2023/01/30 00:11:05;;;;;;;15.00;7.10;;;;;;;-2.21;100.00;99400.86;104381;1304;24352;-34
2023/01/30 00:13:31;;;;;;;14.30;6.60;;;;;;;-2.17;100.00;99398.49;104416;1302;24312;-35
2023/01/30 00:15:57;;;;;;;14.50;8.50;;;;;;;-2.24;100.00;99393.37;104465;1305;22977;-34
2023/01/30 00:18:22;;;;;;;6.60;3.70;;;;;;;-2.16;100.00;99382.11;104367;1306;23175;-34
2023/01/30 00:20:53;;;;;;;14.60;7.20;;;;;;;-2.02;100.00;99373.68;104502;1305;24378;-34
2023/01/30 00:23:19;;;;;;;9.90;6.40;;;;;;;-2.14;100.00;99370.88;104465;1302;25712;-34
2023/01/30 00:25:45;;;;;;;20.00;6.90;;;;;;;-2.04;100.00;99364.14;104488;1306;24405;-29
2023/01/30 00:28:10;;;;;;;11.70;7.40;;;;;;;-1.94;100.00;99348.95;104443;1305;24315;-35
2023/01/30 00:30:36;;;;;;;19.00;8.90;;;;;;;-1.92;99.25;99354.15;104477;1305;22803;-30
2023/01/30 00:33:02;;;;;;;11.70;5.70;;;;;;;-1.92;98.86;99352.54;104483;1305;24245;-30
2023/01/30 00:35:28;;;;;;;26.90;7.10;;;;;;;-1.95;98.13;99352.08;104499;1306;22822;-32
2023/01/30 00:37:55;;;;;;;15.80;8.50;;;;;;;-2.13;99.02;99347.27;104430;1292;24312;-44
2023/01/30 00:40:21;;;;;;;28.60;6.40;;;;;;;-2.00;98.20;99347.19;104434;1306;22623;-30
2023/01/30 00:47:47;;;;;;;12.60;7.60;;;;;;;-2.13;98.87;99321.02;104468;1302;24434;-30
2023/01/30 00:50:13;;;;;;;10.40;4.60;;;;;;;-2.29;99.00;99329.38;104441;1304;22660;-28
2023/01/30 00:52:38;;;;;;;12.40;6.90;;;;;;;-2.33;99.66;99321.46;104416;1295;24443;-29
2023/01/30 00:55:04;;;;;;;17.30;7.90;;;;;;;-2.32;99.62;99308.73;104393;1296;24423;-34
2023/01/30 00:57:30;;;;;;;11.20;5.70;;;;;;;-2.40;99.55;99300.80;104396;1303;23092;-34
2023/01/30 00:59:56;;;;;;;12.90;5.50;;;;;;;-2.45;99.48;99298.15;104383;1302;24427;-30
2023/01/30 01:02:22;;;;;;;13.10;6.70;;;;;;;-2.40;99.24;99278.86;104361;1304;24319;-34
2023/01/30 01:04:47;;;;;;;11.10;6.70;;;;;;;-2.52;99.39;99272.08;104251;1306;24324;-30
2023/01/30 01:07:13;;;;;;;13.10;6.20;;;;;;;-2.63;99.79;99267.83;104449;1295;22666;-28
2023/01/30 01:09:39;;;;;;;19.90;7.20;;;;;;;-2.64;99.64;99265.23;104385;1305;22530;-30
2023/01/30 01:12:05;;;;;;;9.10;5.50;;;;;;;-2.69;99.88;99254.77;104290;1305;24259;-29
2023/01/30 01:14:31;;;;;;;21.20;6.20;;;;;;;-2.74;99.97;99248.48;104451;1301;24395;-39
2023/01/30 01:16:57;;;;;;;11.60;7.00;;;;;;;-2.74;100.00;99247.58;104462;1305;23173;-30
2023/01/30 01:19:23;;;;;;;16.50;7.30;;;;;;;-2.83;100.00;99247.61;104386;1296;22625;-35
2023/01/30 01:21:49;;;;;;;20.50;8.10;;;;;;;-2.85;100.00;99241.62;104383;1305;24389;-30
2023/01/30 01:24:15;;;;;;;9.40;6.40;;;;;;;-3.02;100.00;99236.55;104383;1305;24450;-30
2023/01/30 01:26:41;;;;;;;16.20;7.00;;;;;;;-2.90;100.00;99231.46;104384;1306;22711;-34
2023/01/30 01:29:10;;;;;;;20.20;8.40;;;;;;;-2.96;100.00;99220.20;104381;1305;23029;-30
2023/01/30 01:31:36;;;;;;;15.00;6.10;;;;;;;-2.90;100.00;99213.45;104374;1304;22825;-30
2023/01/30 01:34:02;;;;;;;10.80;6.40;;;;;;;-2.89;100.00;99210.35;104397;1302;22993;-30
2023/01/30 01:36:28;;;;;;;16.50;7.00;;;;;;;-3.00;100.00;99209.83;104408;1306;24266;-33
2023/01/30 01:38:53;;;;;;;12.20;3.80;;;;;;;-2.98;100.00;99196.91;104372;1306;22667;-29
2023/01/30 01:41:19;;;;;;;13.50;6.50;;;;;;;-3.03;100.00;99188.16;104429;1292;24349;-28
2023/01/30 01:44:00;;;;;;;19.00;6.40;;;;;;;-3.18;100.00;99184.70;104479;1305;22656;-29
2023/01/30 01:46:45;;;;;;;12.40;6.60;;;;;;;-3.19;100.00;99184.60;104477;1297;23940;-28
2023/01/30 01:49:14;;;;;;;13.60;6.70;;;;;;;-3.19;100.00;99180.27;104424;1305;23150;-29
2023/01/30 01:51:45;;;;;;;15.90;8.00;;;;;;;-3.26;100.00;99178.69;104319;1292;22785;-33
2023/01/30 01:54:16;;;;;;;7.60;5.20;;;;;;;-3.28;100.00;99172.14;104422;1305;24291;-33
2023/01/30 01:56:42;;;;;;;19.60;7.30;;;;;;;-3.21;100.00;99158.36;104304;1305;22669;-30
2023/01/30 01:59:12;;;;;;;11.40;5.90;;;;;;;-3.18;100.00;99148.98;104424;1291;24233;-29
2023/01/30 02:01:38;;;;;;;14.90;7.30;;;;;;;-3.14;100.00;99149.95;104475;1290;22814;-33
2023/01/30 02:04:07;;;;;;;8.20;5.00;;;;;;;-3.21;100.00;99156.91;104527;1306;24282;-29
2023/01/30 02:06:33;;;;;;;15.90;6.80;;;;;;;-3.25;100.00;99154.95;104452;1306;24429;-34
2023/01/30 02:09:02;;;;;;;16.90;6.30;;;;;;;-3.25;100.00;99158.66;104405;1291;22641;-30
2023/01/30 02:11:34;;;;;;;5.90;3.40;;;;;;;-3.20;100.00;99156.55;104417;1295;24312;-33
2023/01/30 02:14:01;;;;;;;15.90;6.80;;;;;;;-3.24;100.00;99156.11;104440;1297;22565;-29
2023/01/30 02:16:26;;;;;;;16.70;7.00;;;;;;;-3.19;100.00;99161.33;104441;1303;22660;-34
2023/01/30 02:18:53;;;;;;;13.50;7.40;;;;;;;-3.12;100.00;99159.56;104414;1305;22831;-34
2023/01/30 02:21:50;;;;;;;14.60;7.50;;;;;;;-3.03;100.00;99151.90;104405;1295;22785;-30
2023/01/30 02:24:31;;;;;;;16.30;6.00;;;;;;;-3.00;100.00;99149.20;104374;1294;23158;-33
2023/01/30 02:27:13;;;;;;;11.10;6.70;;;;;;;-2.93;100.00;99146.89;104344;1296;24315;-30
2023/01/30 02:30:03;;;;;;;15.50;6.60;;;;;;;-2.94;100.00;99150.14;104338;1306;24345;-34
2023/01/30 02:32:53;;;;;;;11.60;5.60;;;;;;;-2.89;100.00;99148.04;104436;1304;22803;-30
2023/01/30 02:35:31;;;;;;;17.50;8.30;;;;;;;-2.81;100.00;99138.96;104412;1295;24315;-34
2023/01/30 02:38:13;;;;;;;15.60;6.30;;;;;;;-2.74;100.00;99131.28;103978;1306;22775;-30
2023/01/30 02:40:57;;;;;;;17.40;7.60;;;;;;;-2.72;100.00;99127.62;104464;1303;24425;-28
2023/01/30 02:43:44;;;;;;;11.10;7.20;;;;;;;-2.73;99.70;99126.10;104468;1299;24325;-29
2023/01/30 02:46:34;;;;;;;14.10;6.90;;;;;;;-2.78;99.35;99120.20;104359;1306;23180;-29
2023/01/30 02:49:08;;;;;;;15.10;6.80;;;;;;;-2.77;99.55;99117.85;104382;1297;24398;-34
2023/01/30 02:51:36;;;;;;;13.00;6.10;;;;;;;-2.79;99.57;99110.77;104468;1306;22679;-34
2023/01/30 02:54:02;;;;;;;13.40;5.60;;;;;;;-2.79;99.22;99100.48;104392;1304;22676;-28
2023/01/30 02:56:27;;;;;;;10.90;6.20;;;;;;;-2.80;99.79;99086.51;104399;1306;22643;-32
2023/01/30 02:58:56;;;;;;;17.20;8.20;;;;;;;-2.71;99.54;99073.59;104433;1304;22684;-31
2023/01/30 03:01:44;;;;;;;15.60;8.10;;;;;;;-2.59;98.87;99059.99;104417;1294;22667;-33
2023/01/30 03:04:34;;;;;;;11.80;6.40;;;;;;;-2.55;97.01;99058.48;104403;1304;24412;-34
2023/01/30 03:07:07;;;;;;;9.90;4.40;;;;;;;-2.66;96.90;99054.60;104420;1295;24310;-29
2023/01/30 03:09:55;;;;;;;19.70;8.10;;;;;;;-2.56;96.18;99047.83;104438;1296;24274;-29
2023/01/30 03:12:41;;;;;;;13.50;7.50;;;;;;;-2.50;95.54;99038.77;104429;1306;24411;-29
2023/01/30 03:15:32;;;;;;;12.80;7.70;;;;;;;-2.60;95.80;99033.13;104409;1303;23032;-29
2023/01/30 03:17:58;;;;;;;16.50;6.80;;;;;;;-2.59;96.05;99019.69;104423;1291;24325;-29
2023/01/30 03:20:24;;;;;;;13.80;8.40;;;;;;;-2.65;95.91;99018.91;104382;1306;24301;-33
2023/01/30 03:22:50;;;;;;;15.10;8.60;;;;;;;-2.45;94.76;99009.24;104392;1306;24302;-33
2023/01/30 03:25:21;;;;;;;17.30;7.90;;;;;;;-2.44;94.12;99002.36;104419;1306;24325;-33
2023/01/30 03:27:47;;;;;;;15.30;7.20;;;;;;;-2.48;94.32;98992.48;104415;1294;23164;-33
2023/01/30 03:30:13;;;;;;;14.40;8.30;;;;;;;-2.60;95.18;98988.37;104379;1294;23037;-32
2023/01/30 03:32:39;;;;;;;13.50;7.30;;;;;;;-2.50;95.11;98975.01;104421;1295;22616;-29
2023/01/30 03:35:05;;;;;;;17.60;7.70;;;;;;;-2.48;94.47;98972.04;104409;1306;24363;-33
2023/01/30 03:37:31;;;;;;;14.70;7.00;;;;;;;-2.38;94.12;98966.12;104396;1295;23039;-30
2023/01/30 03:39:57;;;;;;;14.50;7.60;;;;;;;-2.40;93.45;98970.11;104420;1299;24477;-33
2023/01/30 03:42:23;;;;;;;19.00;8.70;;;;;;;-2.54;94.15;98968.83;104406;1294;24225;-33
2023/01/30 03:44:49;;;;;;;10.90;6.90;;;;;;;-2.55;94.54;98959.29;104392;1295;22829;-28
2023/01/30 03:47:14;;;;;;;11.10;5.90;;;;;;;-2.37;93.13;98950.79;104386;1294;24275;-33
2023/01/30 03:49:40;;;;;;;16.30;9.80;;;;;;;-2.44;92.71;98950.81;104376;1298;24308;-29
2023/01/30 03:52:05;;;;;;;15.60;10.60;;;;;;;-2.52;92.88;98945.02;104344;1291;23039;-29
2023/01/30 03:54:31;;;;;;;15.30;9.30;;;;;;;-2.50;93.10;98933.23;104390;1306;22669;-29
2023/01/30 03:57:02;;;;;;;12.90;7.00;;;;;;;-2.25;91.61;98916.59;104420;1294;24829;-35
2023/01/30 03:59:28;;;;;;;12.50;7.10;;;;;;;-2.33;90.98;98910.30;104421;1294;22654;-28
2023/01/30 04:01:53;;;;;;;15.20;9.50;;;;;;;-2.34;90.97;98911.95;104422;1294;23148;-29
2023/01/30 04:04:20;;;;;;;23.00;7.30;;;;;;;-2.36;91.52;98902.66;104441;1297;23311;-33
2023/01/30 04:06:46;;;;;;;15.90;8.90;;;;;;;-2.32;91.24;98884.39;104384;1294;24320;-33
2023/01/30 04:09:12;;;;;;;20.90;8.00;;;;;;;-2.35;90.79;98896.80;104337;1303;23049;-33
2023/01/30 04:11:37;;;;;;;18.10;9.60;;;;;;;-2.32;91.11;98896.18;104478;1294;24445;-34
2023/01/30 04:14:03;;;;;;;11.70;6.30;;;;;;;-2.42;91.53;98899.27;104453;1294;23039;-30
2023/01/30 04:16:29;;;;;;;12.40;8.80;;;;;;;-2.33;91.15;98900.33;104454;1294;22692;-29
2023/01/30 04:18:55;;;;;;;10.30;7.40;;;;;;;-2.33;91.09;98903.98;104416;1304;23034;-34
2023/01/30 04:21:21;;;;;;;15.20;8.40;;;;;;;-2.34;90.80;98915.77;104402;1294;22877;-34
2023/01/30 04:23:47;;;;;;;14.80;8.60;;;;;;;-2.51;91.63;98926.48;104430;1296;22686;-35
2023/01/30 04:26:13;;;;;;;13.50;7.10;;;;;;;-2.47;91.45;98919.83;104431;1295;24288;-34
2023/01/30 04:28:39;;;;;;;15.10;8.20;;;;;;;-2.41;91.49;98910.43;104445;1294;22790;-34
2023/01/30 04:31:05;;;;;;;18.70;8.80;;;;;;;-2.35;90.85;98899.07;104436;1306;23037;-34
2023/01/30 04:33:34;;;;;;;14.10;7.80;;;;;;;-2.31;90.55;98900.30;104407;1294;24396;-30
2023/01/30 04:36:00;;;;;;;14.80;9.70;;;;;;;-2.30;90.56;98899.02;104400;1294;24298;-31
2023/01/30 05:17:03;;;;;;;13.10;8.50;;;;;;;-2.27;90.58;98778.46;104608;1296;558063;-34
2023/01/30 05:19:29;;;;;;;8.00;5.60;;;;;;;-1.98;89.33;98777.77;104421;1302;385115;-32
2023/01/30 05:21:54;;;;;;;15.40;8.40;;;;;;;-1.90;88.08;98774.93;104794;1299;24301;-34
2023/01/30 05:24:20;;;;;;;11.80;6.60;;;;;;;-2.10;88.18;98773.15;104800;1302;24295;-29
2023/01/30 05:26:46;;;;;;;6.50;4.40;;;;;;;-2.01;88.44;98757.09;104792;1302;22555;-32
2023/01/30 05:29:12;;;;;;;15.30;7.90;;;;;;;-2.08;88.52;98754.52;104839;1292;22673;-29
2023/01/30 05:31:37;;;;;;;14.40;7.30;;;;;;;-2.05;89.25;98746.81;104858;1293;24277;-34
2023/01/30 05:34:03;;;;;;;13.10;6.80;;;;;;;-1.95;88.13;98739.42;104910;1292;24419;-28
2023/01/30 05:36:29;;;;;;;11.90;7.80;;;;;;;-2.08;88.90;98747.92;104810;1302;24311;-28
2023/01/30 05:38:55;;;;;;;13.50;7.80;;;;;;;-1.96;88.62;98740.58;104816;1302;24302;-32
2023/01/30 05:41:20;;;;;;;9.70;6.60;;;;;;;-1.98;88.61;98740.39;104955;1294;22792;-30
2023/01/30 05:43:49;;;;;;;15.70;7.70;;;;;;;-1.91;88.21;98734.30;104765;1302;22596;-29
2023/01/30 05:46:15;;;;;;;18.60;8.80;;;;;;;-2.06;89.38;98728.75;104809;1300;23025;-29
2023/01/30 05:48:41;;;;;;;17.50;8.90;;;;;;;-1.95;88.79;98735.37;104830;1294;23194;-34
2023/01/30 05:51:20;;;;;;;13.10;7.60;;;;;;;-2.06;89.11;98730.38;104952;1292;24300;-29
2023/01/30 05:53:46;;;;;;;17.80;8.80;;;;;;;-1.97;89.06;98713.41;104889;1292;23951;-34
2023/01/30 05:56:12;;;;;;;16.10;7.90;;;;;;;-1.94;89.10;98709.35;104805;1293;22731;-34
2023/01/30 05:58:38;;;;;;;13.30;8.50;;;;;;;-1.93;88.52;98709.95;104834;1292;24298;-31
2023/01/30 06:01:05;;;;;;;16.10;7.00;;;;;;;-1.89;88.41;98718.14;104849;1293;23151;-34
2023/01/30 06:03:31;;;;;;;11.60;6.90;;;;;;;-2.02;89.34;98713.86;104864;1302;24384;-29
2023/01/30 06:05:57;;;;;;;10.80;6.70;;;;;;;-1.86;88.91;98710.17;104950;1292;22933;-34
2023/01/30 06:08:23;;;;;;;11.80;6.60;;;;;;;-1.95;89.54;98705.86;104846;1302;22660;-30
2023/01/30 06:10:49;;;;;;;12.70;8.50;;;;;;;-1.90;90.00;98689.82;104948;1302;24313;-34
2023/01/30 06:13:14;;;;;;;13.20;8.10;;;;;;;-1.89;89.76;98698.50;104948;1302;23153;-31
2023/01/30 06:15:40;;;;;;;8.30;5.90;;;;;;;-1.81;89.69;98692.23;104823;1299;22608;-28
2023/01/30 06:18:06;;;;;;;10.20;5.90;;;;;;;-1.72;89.39;98675.98;104736;1302;23115;-29
2023/01/30 06:20:31;;;;;;;14.50;7.00;;;;;;;-1.74;89.04;98675.98;104848;1302;24285;-34
2023/01/30 06:22:57;;;;;;;14.20;6.30;;;;;;;-1.86;90.10;98679.48;104934;1292;24262;-33
2023/01/30 06:25:23;;;;;;;13.30;7.60;;;;;;;-1.75;89.80;98676.05;104893;1299;22640;-30
2023/01/30 06:27:48;;;;;;;18.00;6.50;;;;;;;-1.76;90.28;98667.52;104799;1292;22657;-30
2023/01/30 06:30:14;;;;;;;9.60;7.60;;;;;;;-1.74;89.99;98671.77;104925;1296;22580;-30
2023/01/30 06:32:41;;;;;;;11.30;8.20;;;;;;;-1.62;89.75;98666.67;104877;1293;22936;-30
2023/01/30 06:35:07;;;;;;;12.20;6.10;;;;;;;-1.63;89.97;98661.48;104742;1302;23181;-34
2023/01/30 06:37:33;;;;;;;13.80;6.20;;;;;;;-1.57;89.29;98662.69;104749;1292;22701;-34
2023/01/30 06:39:59;;;;;;;19.00;7.10;;;;;;;-1.58;89.18;98651.70;104834;1299;22802;-34
2023/01/30 06:42:25;;;;;;;17.30;8.20;;;;;;;-1.76;90.15;98657.58;104842;1299;24271;-33
2023/01/30 06:44:50;;;;;;;8.60;4.90;;;;;;;-1.58;90.02;98648.23;104925;1292;22697;-34
2023/01/30 06:47:16;;;;;;;10.30;7.50;;;;;;;-1.52;89.94;98646.65;104758;1291;22974;-34
2023/01/30 06:49:42;;;;;;;5.40;3.70;;;;;;;-1.46;89.43;98632.93;104846;1291;22801;-36
2023/01/30 06:52:08;;;;;;;14.60;8.70;;;;;;;-1.37;88.63;98633.34;104824;1300;22659;-35
2023/01/30 06:54:34;;;;;;;9.10;5.40;;;;;;;-1.42;88.54;98637.96;104793;1292;22665;-35
2023/01/30 06:56:59;;;;;;;18.00;9.60;;;;;;;-1.61;89.67;98645.51;104857;1300;26326;-34
2023/01/30 06:59:25;;;;;;;9.70;4.80;;;;;;;-1.47;89.55;98635.30;104925;1302;24428;-33
2023/01/30 07:01:51;;;;;;;7.40;5.40;;;;;;;-1.49;89.59;98630.69;104756;1302;23035;-29
2023/01/30 07:04:17;;;;;;;12.40;9.10;;;;;;;-1.47;89.70;98622.83;104806;1299;22667;-33
2023/01/30 07:06:43;;;;;;;12.30;5.00;;;;;;;-1.34;89.02;98610.23;104924;1298;22807;-29
2023/01/30 07:09:09;;;;;;;12.20;6.80;;;;;;;-1.39;89.49;98616.31;104821;1299;22636;-34
2023/01/30 07:11:35;;;;;;;9.90;6.20;;;;;;;-1.52;90.10;98612.88;104955;1292;22563;-34
2023/01/30 07:14:00;;;;;;;12.40;7.90;;;;;;;-1.41;89.76;98614.88;104915;1295;23041;-29
2023/01/30 07:16:28;;;;;;;13.20;6.70;;;;;;;-1.28;89.31;98606.15;104847;1291;22928;-34
2023/01/30 07:18:57;;;;;;;8.90;5.00;;;;;;;-1.14;88.76;98581.66;104815;1291;22575;-29
2023/01/30 07:21:26;;;;;;;15.20;7.50;;;;;;;-1.32;89.85;98594.43;104873;1302;24465;-29
2023/01/30 07:23:52;;;;;;;17.50;6.10;;;;;;;-1.12;89.26;98576.23;104862;1292;22656;-34
2023/01/30 07:26:18;;;;;;;20.70;8.50;;;;;;;-1.15;89.04;98574.88;104804;1299;22797;-34
2023/01/30 07:28:43;;;;;;;12.50;7.30;;;;;;;-1.09;89.20;98576.46;104828;1296;24418;-29
2023/01/30 07:31:09;;;;;;;12.90;8.00;;;;;;;-1.14;89.48;98573.96;104869;1292;24291;-31
2023/01/30 07:33:35;;;;;;;12.40;5.10;;;;;;;-1.23;90.19;98571.29;104903;1295;23161;-31
2023/01/30 07:36:00;;;;;;;12.20;7.20;;;;;;;-1.04;89.91;98572.13;104790;1291;22798;-33
2023/01/30 07:38:26;;;;;;;18.60;9.80;;;;;;;-1.09;89.81;98576.33;104914;1302;24310;-30
2023/01/30 07:40:52;;;;;;;8.80;4.90;;;;;;;-1.30;91.13;98568.55;104737;1302;24230;-29
2023/01/30 07:43:17;;;;;;;11.40;6.40;;;;;;;-1.20;91.61;98567.84;104868;1292;23038;-34
2023/01/30 07:45:46;;;;;;;9.30;5.90;;;;;;;-1.22;92.18;98572.02;104840;1291;22637;-29
2023/01/30 07:48:14;;;;;;;11.10;4.90;;;;;;;-1.16;92.27;98567.14;104921;1283;24429;-30
2023/01/30 07:50:42;;;;;;;12.00;7.90;;;;;;;-1.13;92.11;98570.21;104591;1295;22689;-31
2023/01/30 07:53:10;;;;;;;14.10;8.30;;;;;;;-1.10;92.53;98572.04;104736;1292;22624;-33
2023/01/30 07:55:35;;;;;;;9.20;6.00;;;;;;;-1.11;92.85;98572.97;104895;1302;22648;-34
2023/01/30 07:58:01;;;;;;;11.00;5.30;;;;;;;-1.07;93.24;98576.83;104914;1301;22576;-33
2023/01/30 08:00:27;;;;;;;12.50;6.80;;;;;;;-0.98;93.07;98560.45;104868;1300;22672;-30
2023/01/30 08:02:53;;;;;;;14.20;5.50;;;;;;;-0.82;92.07;98573.27;104741;1292;23157;-29
2023/01/30 08:05:19;;;;;;;14.60;8.60;;;;;;;-0.80;91.74;98576.93;104786;1291;22799;-30
2023/01/30 08:07:46;;;;;;;5.80;5.00;;;;;;;-0.80;91.78;98568.69;104844;1300;23174;-29
2023/01/30 08:10:12;;;;;;;18.90;8.40;;;;;;;-0.78;91.84;98562.17;104975;1298;25597;-35
2023/01/30 08:12:39;;;;;;;10.80;7.00;;;;;;;-0.82;91.92;98554.90;104907;1286;22790;-29
2023/01/30 08:15:07;;;;;;;9.60;6.80;;;;;;;-0.72;92.06;98558.77;104916;1292;23038;-29
2023/01/30 08:17:33;;;;;;;7.70;5.90;;;;;;;-0.78;93.01;98559.55;104826;1302;22549;-30
2023/01/30 08:19:59;;;;;;;12.80;5.80;;;;;;;-0.63;93.13;98542.64;104906;1298;23035;-34
2023/01/30 08:22:25;;;;;;;18.10;9.10;;;;;;;-0.84;94.10;98549.98;104756;1292;22653;-34
2023/01/30 08:24:51;;;;;;;14.00;9.20;;;;;;;-0.98;95.95;98550.66;104725;1302;22659;-34
2023/01/30 08:27:17;;;;;;;14.50;7.10;;;;;;;-0.99;97.10;98543.56;104913;1293;22542;-31
2023/01/30 08:29:43;;;;;;;13.00;8.20;;;;;;;-1.05;98.75;98547.95;104583;1302;23031;-30
2023/01/30 08:32:09;;;;;;;9.00;6.00;;;;;;;-1.03;99.67;98544.48;104792;1300;22942;-34
2023/01/30 08:34:35;;;;;;;14.50;8.50;;;;;;;-1.10;100.00;98556.36;105057;1293;23032;-32
2023/01/30 08:37:01;;;;;;;10.10;6.00;;;;;;;-0.98;100.00;98546.06;104610;1302;24216;-32
2023/01/30 08:39:27;;;;;;;11.20;6.50;;;;;;;-0.99;100.00;98544.29;104825;1289;22801;-29
2023/01/30 08:41:56;;;;;;;14.20;8.50;;;;;;;-0.90;100.00;98526.55;105012;1292;24300;-32
2023/01/30 08:44:21;;;;;;;12.20;7.90;;;;;;;-0.97;100.00;98532.98;104779;1302;22669;-29
2023/01/30 08:46:47;;;;;;;10.90;7.40;;;;;;;-0.91;100.00;98523.99;104919;1289;22656;-30
2023/01/30 08:49:13;;;;;;;17.60;8.90;;;;;;;-0.92;100.00;98514.58;104779;1292;24368;-29
2023/01/30 08:51:39;;;;;;;20.00;10.30;;;;;;;-0.91;100.00;98517.65;105007;1292;23163;-29
2023/01/30 08:54:06;;;;;;;16.20;9.10;;;;;;;-0.97;100.00;98512.98;104798;1296;22670;-29
2023/01/30 08:56:32;;;;;;;11.90;9.70;;;;;;;-1.03;100.00;98510.40;104880;1290;24262;-29
2023/01/30 08:58:58;;;;;;;17.30;10.10;;;;;;;-1.07;100.00;98511.44;104696;1301;23138;-30
2023/01/30 09:01:24;;;;;;;17.90;10.90;;;;;;;-1.11;100.00;98511.48;104778;1283;22654;-34
2023/01/30 09:03:50;;;;;;;19.20;11.00;;;;;;;-1.03;100.00;98510.59;104831;1283;22565;-32
2023/01/30 09:06:16;;;;;;;13.10;7.40;;;;;;;-1.09;100.00;98507.55;104840;1286;22657;-30
2023/01/30 09:08:42;;;;;;;21.90;12.90;;;;;;;-0.93;100.00;98495.07;104825;1295;22666;-33
2023/01/30 09:11:09;;;;;;;15.90;9.20;;;;;;;-1.10;100.00;98493.81;104878;1286;23164;-34
2023/01/30 09:13:35;;;;;;;17.70;10.40;;;;;;;-1.03;100.00;98498.02;104931;1286;23037;-34
2023/01/30 09:16:02;;;;;;;23.70;11.40;;;;;;;-1.05;100.00;98487.02;104852;1292;22628;-30
2023/01/30 09:18:28;;;;;;;19.10;11.80;;;;;;;-0.95;100.00;98491.91;104890;1298;24349;-34
2023/01/30 09:21:02;;;;;;;11.00;7.40;;;;;;;-0.95;100.00;98496.38;104975;1299;22915;-30
2023/01/30 09:23:27;;;;;;;;;;;;;;;-0.70;100.00;98477.38;104853;1302;22628;-30
2023/01/30 09:25:53;;;;;;;11.60;6.50;;;;;;;-0.88;100.00;98483.78;104843;1292;22787;-30
2023/01/30 09:28:19;;;;;;;8.90;6.20;;;;;;;-0.66;100.00;98463.63;104779;1292;22824;-30
2023/01/30 09:30:45;;;;;;;15.50;8.80;;;;;;;-0.58;100.00;98466.55;104889;1298;23001;-31
2023/01/30 09:33:10;;;;;;;20.80;10.10;;;;;;;-0.46;100.00;98460.25;104993;1292;22786;-30
2023/01/30 09:35:36;;;;;;;13.90;6.70;;;;;;;-0.43;100.00;98454.33;104804;1300;23050;-33
2023/01/30 09:38:03;;;;;;;16.60;8.70;;;;;;;-0.47;100.00;98463.04;104817;1298;22651;-33
2023/01/30 09:40:30;;;;;;;12.60;8.50;;;;;;;-0.54;100.00;98463.86;104859;1292;22635;-34
2023/01/30 09:43:12;;;;;;;16.00;9.20;;;;;;;-0.43;100.00;98462.25;104935;1293;22823;-33
2023/01/30 09:45:55;;;;;;;17.00;8.60;;;;;;;-0.24;100.00;98450.22;104855;1292;22566;-34
2023/01/30 09:48:34;;;;;;;18.10;7.90;;;;;;;-0.19;100.00;98450.53;104796;1296;23035;-30
2023/01/30 09:51:10;;;;;;;15.20;7.90;;;;;;;-0.28;100.00;98444.27;105002;1292;22570;-35
2023/01/30 09:53:55;;;;;;;28.80;10.50;;;;;;;-0.54;100.00;98451.35;104796;1283;22580;-34
2023/01/30 09:56:20;;;;;;;14.30;8.30;;;;;;;-0.70;100.00;98450.49;104812;1299;22630;-30
2023/01/30 09:59:01;;;;;;;16.60;9.60;;;;;;;-0.46;100.00;98441.44;104842;1292;24221;-30
2023/01/30 10:01:48;;;;;;;13.00;7.50;;;;;;;-0.58;100.00;98446.98;104773;1302;22657;-34
2023/01/30 10:04:35;;;;;;;15.30;8.40;;;;;;;-0.57;100.00;98438.48;104955;1287;24269;-34
2023/01/30 10:07:10;;;;;;;18.80;10.30;;;;;;;-0.81;100.00;98439.89;104800;1302;24419;-34
2023/01/30 10:09:44;;;;;;;21.20;10.90;;;;;;;-0.72;100.00;98432.02;104809;1299;22663;-34
2023/01/30 10:12:30;;;;;;;15.60;7.50;;;;;;;-0.79;100.00;98433.70;104828;1298;25420;-34
2023/01/30 10:15:14;;;;;;;13.00;7.50;;;;;;;-0.75;100.00;98431.40;104842;1292;23172;-34
2023/01/30 10:17:44;;;;;;;;;;;;;;;-0.75;100.00;98413.11;104915;1289;24385;-30
2023/01/30 10:20:35;;;;;;;11.40;7.00;;;;;;;-0.54;100.00;98418.96;104887;1295;24368;-30
2023/01/30 10:23:17;;;;;;;16.80;11.40;;;;;;;-0.51;100.00;98410.80;104892;1292;24610;-30
2023/01/30 10:25:55;;;;;;;13.50;7.00;;;;;;;-0.52;100.00;98405.07;104835;1300;23026;-31
2023/01/30 10:28:27;;;;;;;13.20;7.90;;;;;;;-0.20;100.00;98394.71;104931;1292;22657;-35
2023/01/30 10:31:03;;;;;;;9.40;5.40;;;;;;;-0.18;100.00;98385.77;104875;1292;22666;-34
2023/01/30 10:33:32;;;;;;;13.60;8.50;;;;;;;-0.13;100.00;98392.46;104842;1292;22626;-35
2023/01/30 10:36:11;;;;;;;11.90;6.80;;;;;;;-0.14;100.00;98389.33;104809;1299;22678;-35
2023/01/30 10:38:49;;;;;;;12.80;6.90;;;;;;;-0.22;100.00;98390.35;104878;1292;24221;-31
2023/01/30 10:41:40;;;;;;;10.20;6.40;;;;;;;0.01;100.00;98382.38;104881;1302;22796;-30
2023/01/30 10:44:11;;;;;;;10.70;7.60;;;;;;;0.02;100.00;98377.92;104825;1302;23284;-35
2023/01/30 10:46:59;;;;;;;9.00;5.40;;;;;;;0.09;100.00;98373.52;104916;1287;22560;-30
2023/01/30 10:49:48;;;;;;;7.80;4.40;;;;;;;0.33;100.00;98365.08;104578;1302;22810;-30
2023/01/30 10:52:40;;;;;;;12.10;7.10;;;;;;;0.10;100.00;98361.27;104738;1292;23160;-35
2023/01/30 10:55:29;;;;;;;5.60;3.00;;;;;;;0.14;100.00;98363.31;104807;1302;22995;-36
2023/01/30 10:58:14;;;;;;;10.60;4.90;;;;;;;0.28;100.00;98353.26;104759;1292;22659;-36
2023/01/30 11:00:55;;;;;;;8.50;5.20;;;;;;;0.03;100.00;98360.77;104884;1289;24400;-36
2023/01/30 11:03:37;;;;;;;8.20;4.80;;;;;;;-0.04;100.00;98354.63;104819;1292;24632;-32
2023/01/30 11:46:17;;;;;;;14.60;8.30;;;;;;;-0.73;100.00;98361.64;104584;1295;557562;-32
2023/01/30 11:48:49;;;;;;;11.60;7.10;;;;;;;-0.66;100.00;98352.55;104298;1294;368508;-36
2023/01/30 11:51:15;;;;;;;5.60;3.80;;;;;;;-0.63;100.00;98353.64;104506;1302;25311;-32
2023/01/30 11:53:44;;;;;;;6.20;4.00;;;;;;;-0.60;100.00;98343.86;104434;1303;22640;-32
2023/01/30 11:56:21;;;;;;;7.50;4.60;;;;;;;-0.67;100.00;98343.24;104649;1303;24412;-32
2023/01/30 11:58:56;;;;;;;7.20;5.00;;;;;;;-0.56;100.00;98337.65;104744;1290;22582;-36
2023/01/30 12:01:25;;;;;;;7.60;5.00;;;;;;;-0.53;100.00;98328.50;104655;1294;24279;-37
2023/01/30 12:03:52;;;;;;;11.00;6.90;;;;;;;-0.53;100.00;98323.10;104721;1295;24309;-32
2023/01/30 12:06:29;;;;;;;10.40;6.40;;;;;;;-0.56;100.00;98321.81;104456;1296;23044;-33
2023/01/30 12:08:54;;;;;;;13.50;6.80;;;;;;;-0.51;100.00;98320.77;104894;1303;22859;-33
2023/01/30 12:11:43;;;;;;;11.20;5.90;;;;;;;-0.44;100.00;98313.44;104602;1294;23040;-33
2023/01/30 12:14:30;;;;;;;12.10;5.70;;;;;;;-0.45;100.00;98315.77;104605;1292;24431;-37
2023/01/30 12:17:17;;;;;;;9.60;5.10;;;;;;;-0.41;100.00;98308.16;104669;1288;24322;-33
2023/01/30 12:20:04;;;;;;;8.80;6.20;;;;;;;-0.34;100.00;98301.86;104763;1303;24411;-37
2023/01/30 12:22:57;;;;;;;13.30;7.10;;;;;;;-0.23;100.00;98301.75;104585;1294;22663;-33
2023/01/30 12:25:46;;;;;;;11.40;6.40;;;;;;;-0.34;100.00;98301.34;104619;1284;22785;-33
2023/01/30 12:28:24;;;;;;;10.60;6.00;;;;;;;-0.29;100.00;98290.09;104633;1303;22568;-37
2023/01/30 12:30:55;;;;;;;9.10;4.50;;;;;;;-0.19;100.00;98284.16;104584;1303;24265;-37
2023/01/30 12:33:21;;;;;;;12.30;6.80;;;;;;;-0.27;100.00;98286.52;104452;1303;22582;-36
2023/01/30 12:36:01;;;;;;;6.50;4.70;;;;;;;-0.27;100.00;98289.13;104649;1303;22816;-33
2023/01/30 12:38:46;;;;;;;6.00;3.70;;;;;;;-0.22;100.00;98277.05;104725;1290;25372;-32
2023/01/30 12:41:34;;;;;;;12.80;6.60;;;;;;;-0.31;100.00;98282.56;104721;1293;22689;-33
2023/01/30 12:44:23;;;;;;;14.10;6.20;;;;;;;-0.28;100.00;98284.17;104583;1293;22690;-37
2023/01/30 12:47:13;;;;;;;6.40;4.40;;;;;;;-0.30;100.00;98287.40;104796;1300;24436;-40
2023/01/30 12:49:54;;;;;;;11.60;5.90;;;;;;;-0.29;100.00;98279.36;104673;1293;24677;-32
2023/01/30 12:52:50;;;;;;;8.50;5.90;;;;;;;-0.23;100.00;98278.77;104739;1303;23179;-37